sensor_id;sensor_type;location;lat;lon;timestamp;P1;durP1;ratioP1;P2;durP2;ratioP2
27925;SDS011;15267;47.838;12.128;2023-04-07T00:01:33;17.83;;;11.77;;
27925;SDS011;15267;47.838;12.128;2023-04-07T00:03:59;16.85;;;11.00;;
27925;SDS011;15267;47.838;12.128;2023-04-07T00:06:25;13.77;;;10.98;;
27925;SDS011;15267;47.838;12.128;2023-04-07T00:08:51;16.25;;;11.93;;
27925;SDS011;15267;47.838;12.128;2023-04-07T00:11:17;15.60;;;12.15;;
27925;SDS011;15267;47.838;12.128;2023-04-07T00:13:43;16.15;;;12.25;;
27925;SDS011;15267;47.838;12.128;2023-04-07T00:16:09;17.55;;;12.52;;
27925;SDS011;15267;47.838;12.128;2023-04-07T00:18:35;17.70;;;12.50;;
27925;SDS011;15267;47.838;12.128;2023-04-07T00:21:01;17.23;;;11.60;;
27925;SDS011;15267;47.838;12.128;2023-04-07T00:23:27;16.67;;;12.35;;
27925;SDS011;15267;47.838;12.128;2023-04-07T00:25:53;18.38;;;12.63;;
27925;SDS011;15267;47.838;12.128;2023-04-07T00:28:19;16.27;;;12.48;;
27925;SDS011;15267;47.838;12.128;2023-04-07T00:30:45;16.20;;;12.48;;
27925;SDS011;15267;47.838;12.128;2023-04-07T00:33:11;15.90;;;11.95;;
27925;SDS011;15267;47.838;12.128;2023-04-07T00:35:37;15.40;;;11.32;;
27925;SDS011;15267;47.838;12.128;2023-04-07T00:38:03;15.65;;;11.40;;
27925;SDS011;15267;47.838;12.128;2023-04-07T00:40:29;15.55;;;12.13;;
27925;SDS011;15267;47.838;12.128;2023-04-07T00:42:55;17.17;;;11.88;;
27925;SDS011;15267;47.838;12.128;2023-04-07T00:45:21;17.27;;;12.75;;
27925;SDS011;15267;47.838;12.128;2023-04-07T00:47:47;15.95;;;11.52;;
27925;SDS011;15267;47.838;12.128;2023-04-07T00:50:13;17.52;;;12.18;;
27925;SDS011;15267;47.838;12.128;2023-04-07T00:52:39;15.25;;;11.45;;
27925;SDS011;15267;47.838;12.128;2023-04-07T00:55:05;15.65;;;12.70;;
27925;SDS011;15267;47.838;12.128;2023-04-07T00:57:31;19.75;;;12.43;;
27925;SDS011;15267;47.838;12.128;2023-04-07T00:59:57;16.55;;;12.45;;
27925;SDS011;15267;47.838;12.128;2023-04-07T01:02:31;14.32;;;11.77;;
27925;SDS011;15267;47.838;12.128;2023-04-07T01:05:09;16.58;;;11.75;;
27925;SDS011;15267;47.838;12.128;2023-04-07T01:10:34;16.20;;;11.75;;
27925;SDS011;15267;47.838;12.128;2023-04-07T01:13:04;18.10;;;12.80;;
27925;SDS011;15267;47.838;12.128;2023-04-07T01:15:31;17.20;;;11.45;;
27925;SDS011;15267;47.838;12.128;2023-04-07T01:17:59;15.35;;;11.65;;
27925;SDS011;15267;47.838;12.128;2023-04-07T01:20:26;13.90;;;12.00;;
27925;SDS011;15267;47.838;12.128;2023-04-07T01:22:56;18.10;;;12.05;;
27925;SDS011;15267;47.838;12.128;2023-04-07T01:25:33;17.33;;;12.60;;
27925;SDS011;15267;47.838;12.128;2023-04-07T01:30:33;15.38;;;11.85;;
27925;SDS011;15267;47.838;12.128;2023-04-07T01:33:00;14.60;;;11.65;;
27925;SDS011;15267;47.838;12.128;2023-04-07T01:35:28;15.57;;;11.65;;
27925;SDS011;15267;47.838;12.128;2023-04-07T01:37:55;15.30;;;11.77;;
27925;SDS011;15267;47.838;12.128;2023-04-07T01:40:22;14.20;;;11.75;;
27925;SDS011;15267;47.838;12.128;2023-04-07T01:42:48;15.93;;;12.18;;
27925;SDS011;15267;47.838;12.128;2023-04-07T01:45:15;14.65;;;11.77;;
27925;SDS011;15267;47.838;12.128;2023-04-07T01:47:41;14.82;;;11.13;;
27925;SDS011;15267;47.838;12.128;2023-04-07T01:50:09;13.77;;;11.15;;
27925;SDS011;15267;47.838;12.128;2023-04-07T01:52:36;13.63;;;11.38;;
27925;SDS011;15267;47.838;12.128;2023-04-07T01:55:03;14.30;;;11.10;;
27925;SDS011;15267;47.838;12.128;2023-04-07T01:57:29;13.27;;;11.15;;
27925;SDS011;15267;47.838;12.128;2023-04-07T01:59:55;14.32;;;10.88;;
27925;SDS011;15267;47.838;12.128;2023-04-07T02:02:21;14.40;;;10.82;;
27925;SDS011;15267;47.838;12.128;2023-04-07T02:04:57;15.43;;;12.05;;
27925;SDS011;15267;47.838;12.128;2023-04-07T02:07:31;14.98;;;11.60;;
27925;SDS011;15267;47.838;12.128;2023-04-07T02:10:00;15.70;;;11.87;;
27925;SDS011;15267;47.838;12.128;2023-04-07T02:12:27;15.85;;;11.77;;
27925;SDS011;15267;47.838;12.128;2023-04-07T02:14:54;16.35;;;12.55;;
27925;SDS011;15267;47.838;12.128;2023-04-07T02:17:21;18.02;;;11.40;;
27925;SDS011;15267;47.838;12.128;2023-04-07T02:19:48;16.00;;;11.13;;
27925;SDS011;15267;47.838;12.128;2023-04-07T02:22:15;14.93;;;11.73;;
27925;SDS011;15267;47.838;12.128;2023-04-07T02:24:41;15.40;;;11.77;;
27925;SDS011;15267;47.838;12.128;2023-04-07T02:27:07;15.80;;;11.98;;
27925;SDS011;15267;47.838;12.128;2023-04-07T02:29:33;15.02;;;11.57;;
27925;SDS011;15267;47.838;12.128;2023-04-07T02:31:59;13.35;;;11.02;;
27925;SDS011;15267;47.838;12.128;2023-04-07T02:34:25;16.70;;;11.60;;
27925;SDS011;15267;47.838;12.128;2023-04-07T02:36:51;14.57;;;11.18;;
27925;SDS011;15267;47.838;12.128;2023-04-07T02:39:17;14.00;;;10.90;;
27925;SDS011;15267;47.838;12.128;2023-04-07T02:41:43;19.00;;;11.38;;
27925;SDS011;15267;47.838;12.128;2023-04-07T02:44:09;16.60;;;11.40;;
27925;SDS011;15267;47.838;12.128;2023-04-07T02:46:35;15.98;;;11.55;;
27925;SDS011;15267;47.838;12.128;2023-04-07T02:49:01;14.82;;;11.85;;
27925;SDS011;15267;47.838;12.128;2023-04-07T02:51:27;14.57;;;11.95;;
27925;SDS011;15267;47.838;12.128;2023-04-07T02:53:53;14.40;;;11.32;;
27925;SDS011;15267;47.838;12.128;2023-04-07T02:56:19;14.98;;;11.30;;
27925;SDS011;15267;47.838;12.128;2023-04-07T02:58:45;16.25;;;11.35;;
27925;SDS011;15267;47.838;12.128;2023-04-07T03:01:11;15.75;;;11.20;;
27925;SDS011;15267;47.838;12.128;2023-04-07T03:03:37;15.25;;;11.80;;
27925;SDS011;15267;47.838;12.128;2023-04-07T03:06:04;15.73;;;11.68;;
27925;SDS011;15267;47.838;12.128;2023-04-07T03:08:30;14.73;;;11.63;;
27925;SDS011;15267;47.838;12.128;2023-04-07T03:10:56;21.60;;;10.93;;
27925;SDS011;15267;47.838;12.128;2023-04-07T03:13:22;15.98;;;11.05;;
27925;SDS011;15267;47.838;12.128;2023-04-07T03:15:47;16.52;;;10.90;;
27925;SDS011;15267;47.838;12.128;2023-04-07T03:18:13;13.27;;;10.80;;
27925;SDS011;15267;47.838;12.128;2023-04-07T03:20:39;16.65;;;11.82;;
27925;SDS011;15267;47.838;12.128;2023-04-07T03:23:06;13.60;;;10.73;;
27925;SDS011;15267;47.838;12.128;2023-04-07T03:25:32;14.02;;;10.95;;
27925;SDS011;15267;47.838;12.128;2023-04-07T03:27:58;16.02;;;12.02;;
27925;SDS011;15267;47.838;12.128;2023-04-07T03:30:24;14.73;;;11.30;;
27925;SDS011;15267;47.838;12.128;2023-04-07T03:32:50;15.60;;;12.00;;
27925;SDS011;15267;47.838;12.128;2023-04-07T03:35:16;16.33;;;12.02;;
27925;SDS011;15267;47.838;12.128;2023-04-07T03:37:42;16.15;;;12.25;;
27925;SDS011;15267;47.838;12.128;2023-04-07T03:40:08;16.77;;;11.75;;
27925;SDS011;15267;47.838;12.128;2023-04-07T03:42:34;15.38;;;11.15;;
27925;SDS011;15267;47.838;12.128;2023-04-07T03:45:00;14.95;;;11.93;;
27925;SDS011;15267;47.838;12.128;2023-04-07T03:47:26;14.98;;;11.82;;
27925;SDS011;15267;47.838;12.128;2023-04-07T03:49:52;15.45;;;12.20;;
27925;SDS011;15267;47.838;12.128;2023-04-07T03:52:18;16.10;;;12.40;;
27925;SDS011;15267;47.838;12.128;2023-04-07T03:54:44;15.13;;;11.23;;
27925;SDS011;15267;47.838;12.128;2023-04-07T03:57:10;16.35;;;11.38;;
27925;SDS011;15267;47.838;12.128;2023-04-07T03:59:36;16.27;;;11.80;;
27925;SDS011;15267;47.838;12.128;2023-04-07T04:02:02;13.82;;;11.82;;
27925;SDS011;15267;47.838;12.128;2023-04-07T04:04:28;16.00;;;11.73;;
27925;SDS011;15267;47.838;12.128;2023-04-07T04:06:54;16.80;;;12.20;;
27925;SDS011;15267;47.838;12.128;2023-04-07T04:09:20;15.27;;;11.98;;
27925;SDS011;15267;47.838;12.128;2023-04-07T04:11:46;16.38;;;12.05;;
27925;SDS011;15267;47.838;12.128;2023-04-07T04:14:12;16.55;;;11.90;;
27925;SDS011;15267;47.838;12.128;2023-04-07T04:16:38;16.13;;;12.68;;
27925;SDS011;15267;47.838;12.128;2023-04-07T04:19:04;17.17;;;12.82;;
27925;SDS011;15267;47.838;12.128;2023-04-07T04:21:30;14.68;;;12.35;;
27925;SDS011;15267;47.838;12.128;2023-04-07T04:23:56;17.67;;;12.80;;
27925;SDS011;15267;47.838;12.128;2023-04-07T04:26:22;15.38;;;11.70;;
27925;SDS011;15267;47.838;12.128;2023-04-07T04:28:50;16.38;;;12.63;;
27925;SDS011;15267;47.838;12.128;2023-04-07T04:31:16;15.43;;;11.88;;
27925;SDS011;15267;47.838;12.128;2023-04-07T04:33:42;14.57;;;11.27;;
27925;SDS011;15267;47.838;12.128;2023-04-07T04:36:08;14.77;;;12.60;;
27925;SDS011;15267;47.838;12.128;2023-04-07T04:38:34;17.80;;;13.10;;
27925;SDS011;15267;47.838;12.128;2023-04-07T04:41:00;18.55;;;12.35;;
27925;SDS011;15267;47.838;12.128;2023-04-07T04:43:26;14.35;;;12.18;;
27925;SDS011;15267;47.838;12.128;2023-04-07T04:45:52;14.73;;;11.77;;
27925;SDS011;15267;47.838;12.128;2023-04-07T04:48:18;17.63;;;13.43;;
27925;SDS011;15267;47.838;12.128;2023-04-07T04:50:44;16.35;;;12.63;;
27925;SDS011;15267;47.838;12.128;2023-04-07T04:53:10;17.13;;;13.45;;
27925;SDS011;15267;47.838;12.128;2023-04-07T04:55:36;20.85;;;13.88;;
27925;SDS011;15267;47.838;12.128;2023-04-07T04:58:04;19.65;;;14.52;;
27925;SDS011;15267;47.838;12.128;2023-04-07T05:00:30;21.90;;;14.90;;
27925;SDS011;15267;47.838;12.128;2023-04-07T05:02:56;20.42;;;14.43;;
27925;SDS011;15267;47.838;12.128;2023-04-07T05:05:22;16.52;;;13.38;;
27925;SDS011;15267;47.838;12.128;2023-04-07T05:07:48;21.58;;;12.98;;
27925;SDS011;15267;47.838;12.128;2023-04-07T05:10:14;15.13;;;12.23;;
27925;SDS011;15267;47.838;12.128;2023-04-07T05:12:40;17.48;;;12.32;;
27925;SDS011;15267;47.838;12.128;2023-04-07T05:15:07;16.42;;;12.38;;
27925;SDS011;15267;47.838;12.128;2023-04-07T05:17:33;20.00;;;13.02;;
27925;SDS011;15267;47.838;12.128;2023-04-07T05:19:59;17.55;;;13.57;;
27925;SDS011;15267;47.838;12.128;2023-04-07T05:22:25;15.77;;;13.07;;
27925;SDS011;15267;47.838;12.128;2023-04-07T05:24:50;17.20;;;13.35;;
27925;SDS011;15267;47.838;12.128;2023-04-07T05:27:16;17.15;;;12.88;;
27925;SDS011;15267;47.838;12.128;2023-04-07T05:29:42;17.40;;;12.65;;
27925;SDS011;15267;47.838;12.128;2023-04-07T05:32:08;15.23;;;12.93;;
27925;SDS011;15267;47.838;12.128;2023-04-07T05:34:34;17.85;;;13.30;;
27925;SDS011;15267;47.838;12.128;2023-04-07T05:37:00;17.27;;;13.02;;
27925;SDS011;15267;47.838;12.128;2023-04-07T05:39:26;17.52;;;13.25;;
27925;SDS011;15267;47.838;12.128;2023-04-07T05:41:52;19.33;;;13.93;;
27925;SDS011;15267;47.838;12.128;2023-04-07T05:44:18;17.98;;;13.63;;
27925;SDS011;15267;47.838;12.128;2023-04-07T05:46:44;16.08;;;12.85;;
27925;SDS011;15267;47.838;12.128;2023-04-07T05:49:10;15.93;;;12.60;;
27925;SDS011;15267;47.838;12.128;2023-04-07T05:51:36;18.40;;;13.63;;
27925;SDS011;15267;47.838;12.128;2023-04-07T05:54:02;16.10;;;11.85;;
27925;SDS011;15267;47.838;12.128;2023-04-07T05:56:28;16.48;;;11.15;;
27925;SDS011;15267;47.838;12.128;2023-04-07T05:58:54;14.55;;;12.15;;
27925;SDS011;15267;47.838;12.128;2023-04-07T06:01:20;14.05;;;10.45;;
27925;SDS011;15267;47.838;12.128;2023-04-07T06:03:46;13.10;;;10.52;;
27925;SDS011;15267;47.838;12.128;2023-04-07T06:06:13;13.77;;;10.45;;
27925;SDS011;15267;47.838;12.128;2023-04-07T06:08:39;14.38;;;10.60;;
27925;SDS011;15267;47.838;12.128;2023-04-07T06:11:05;14.00;;;11.13;;
27925;SDS011;15267;47.838;12.128;2023-04-07T06:13:31;14.70;;;11.52;;
27925;SDS011;15267;47.838;12.128;2023-04-07T06:15:57;13.50;;;11.02;;
27925;SDS011;15267;47.838;12.128;2023-04-07T06:18:23;13.15;;;11.07;;
27925;SDS011;15267;47.838;12.128;2023-04-07T06:20:49;14.35;;;11.25;;
27925;SDS011;15267;47.838;12.128;2023-04-07T06:23:15;15.30;;;11.27;;
27925;SDS011;15267;47.838;12.128;2023-04-07T06:25:41;14.15;;;11.10;;
27925;SDS011;15267;47.838;12.128;2023-04-07T06:28:07;13.95;;;11.30;;
27925;SDS011;15267;47.838;12.128;2023-04-07T06:30:33;14.73;;;11.13;;
27925;SDS011;15267;47.838;12.128;2023-04-07T06:32:59;14.70;;;12.13;;
27925;SDS011;15267;47.838;12.128;2023-04-07T06:35:25;14.23;;;11.32;;
27925;SDS011;15267;47.838;12.128;2023-04-07T06:37:52;14.88;;;11.05;;
27925;SDS011;15267;47.838;12.128;2023-04-07T06:40:18;13.32;;;10.82;;
27925;SDS011;15267;47.838;12.128;2023-04-07T06:42:44;15.68;;;11.15;;
27925;SDS011;15267;47.838;12.128;2023-04-07T06:45:10;13.18;;;10.43;;
27925;SDS011;15267;47.838;12.128;2023-04-07T06:47:36;13.00;;;10.38;;
27925;SDS011;15267;47.838;12.128;2023-04-07T06:50:02;14.00;;;10.43;;
27925;SDS011;15267;47.838;12.128;2023-04-07T06:52:28;13.25;;;10.00;;
27925;SDS011;15267;47.838;12.128;2023-04-07T06:54:54;13.27;;;10.55;;
27925;SDS011;15267;47.838;12.128;2023-04-07T06:57:21;12.38;;;10.05;;
27925;SDS011;15267;47.838;12.128;2023-04-07T06:59:47;14.25;;;10.30;;
27925;SDS011;15267;47.838;12.128;2023-04-07T07:02:13;14.55;;;10.32;;
27925;SDS011;15267;47.838;12.128;2023-04-07T07:04:39;15.30;;;10.63;;
27925;SDS011;15267;47.838;12.128;2023-04-07T07:07:05;13.13;;;9.90;;
27925;SDS011;15267;47.838;12.128;2023-04-07T07:09:31;11.93;;;9.82;;
27925;SDS011;15267;47.838;12.128;2023-04-07T07:11:57;14.82;;;10.55;;
27925;SDS011;15267;47.838;12.128;2023-04-07T07:14:25;13.30;;;10.07;;
27925;SDS011;15267;47.838;12.128;2023-04-07T07:16:51;13.75;;;10.57;;
27925;SDS011;15267;47.838;12.128;2023-04-07T07:19:17;14.50;;;11.90;;
27925;SDS011;15267;47.838;12.128;2023-04-07T07:21:43;13.27;;;10.63;;
27925;SDS011;15267;47.838;12.128;2023-04-07T07:24:09;12.98;;;10.20;;
27925;SDS011;15267;47.838;12.128;2023-04-07T07:26:35;15.35;;;10.52;;
27925;SDS011;15267;47.838;12.128;2023-04-07T07:29:01;10.90;;;9.70;;
27925;SDS011;15267;47.838;12.128;2023-04-07T07:31:27;13.52;;;10.05;;
27925;SDS011;15267;47.838;12.128;2023-04-07T07:33:55;12.82;;;9.82;;
27925;SDS011;15267;47.838;12.128;2023-04-07T07:36:20;11.88;;;9.13;;
27925;SDS011;15267;47.838;12.128;2023-04-07T07:38:48;18.80;;;12.80;;
27925;SDS011;15267;47.838;12.128;2023-04-07T07:41:14;21.30;;;13.80;;
27925;SDS011;15267;47.838;12.128;2023-04-07T07:43:40;19.15;;;12.27;;
27925;SDS011;15267;47.838;12.128;2023-04-07T07:46:06;19.83;;;12.88;;
27925;SDS011;15267;47.838;12.128;2023-04-07T07:48:32;17.67;;;10.90;;
27925;SDS011;15267;47.838;12.128;2023-04-07T07:50:58;14.50;;;10.80;;
27925;SDS011;15267;47.838;12.128;2023-04-07T07:53:24;15.40;;;10.52;;
27925;SDS011;15267;47.838;12.128;2023-04-07T07:55:50;11.80;;;10.15;;
27925;SDS011;15267;47.838;12.128;2023-04-07T07:58:16;14.38;;;10.45;;
27925;SDS011;15267;47.838;12.128;2023-04-07T08:00:42;13.20;;;9.65;;
27925;SDS011;15267;47.838;12.128;2023-04-07T08:03:08;12.57;;;9.80;;
27925;SDS011;15267;47.838;12.128;2023-04-07T08:05:34;12.20;;;9.23;;
27925;SDS011;15267;47.838;12.128;2023-04-07T08:08:00;13.00;;;9.23;;
27925;SDS011;15267;47.838;12.128;2023-04-07T08:10:27;12.18;;;9.73;;
27925;SDS011;15267;47.838;12.128;2023-04-07T08:12:52;17.85;;;12.50;;
27925;SDS011;15267;47.838;12.128;2023-04-07T08:15:18;14.43;;;9.82;;
27925;SDS011;15267;47.838;12.128;2023-04-07T08:17:45;15.80;;;9.55;;
27925;SDS011;15267;47.838;12.128;2023-04-07T08:20:11;60.55;;;41.92;;
27925;SDS011;15267;47.838;12.128;2023-04-07T08:22:37;13.30;;;9.13;;
27925;SDS011;15267;47.838;12.128;2023-04-07T08:25:03;13.75;;;9.07;;
27925;SDS011;15267;47.838;12.128;2023-04-07T08:27:29;10.32;;;8.68;;
27925;SDS011;15267;47.838;12.128;2023-04-07T08:29:58;11.32;;;8.48;;
27925;SDS011;15267;47.838;12.128;2023-04-07T08:32:25;9.48;;;8.27;;
27925;SDS011;15267;47.838;12.128;2023-04-07T08:34:54;12.30;;;9.10;;
27925;SDS011;15267;47.838;12.128;2023-04-07T08:37:20;12.32;;;8.88;;
27925;SDS011;15267;47.838;12.128;2023-04-07T08:39:46;12.95;;;9.18;;
27925;SDS011;15267;47.838;12.128;2023-04-07T08:42:12;9.80;;;8.23;;
27925;SDS011;15267;47.838;12.128;2023-04-07T08:44:38;10.68;;;7.97;;
27925;SDS011;15267;47.838;12.128;2023-04-07T08:47:04;10.30;;;7.82;;
27925;SDS011;15267;47.838;12.128;2023-04-07T08:49:32;12.27;;;8.50;;
27925;SDS011;15267;47.838;12.128;2023-04-07T08:52:01;12.65;;;8.43;;
27925;SDS011;15267;47.838;12.128;2023-04-07T08:54:31;10.88;;;8.25;;
27925;SDS011;15267;47.838;12.128;2023-04-07T08:56:58;9.38;;;7.88;;
27925;SDS011;15267;47.838;12.128;2023-04-07T08:59:24;10.73;;;9.13;;
27925;SDS011;15267;47.838;12.128;2023-04-07T09:01:53;13.68;;;8.90;;
27925;SDS011;15267;47.838;12.128;2023-04-07T09:04:20;11.45;;;8.95;;
27925;SDS011;15267;47.838;12.128;2023-04-07T09:06:48;10.50;;;8.00;;
27925;SDS011;15267;47.838;12.128;2023-04-07T09:09:14;10.73;;;8.32;;
27925;SDS011;15267;47.838;12.128;2023-04-07T09:11:40;12.18;;;9.38;;
27925;SDS011;15267;47.838;12.128;2023-04-07T09:14:06;9.10;;;8.05;;
27925;SDS011;15267;47.838;12.128;2023-04-07T09:16:32;12.38;;;8.43;;
27925;SDS011;15267;47.838;12.128;2023-04-07T09:18:58;10.38;;;7.95;;
27925;SDS011;15267;47.838;12.128;2023-04-07T09:21:24;12.57;;;7.68;;
27925;SDS011;15267;47.838;12.128;2023-04-07T09:23:51;11.43;;;8.20;;
27925;SDS011;15267;47.838;12.128;2023-04-07T09:29:07;9.35;;;7.75;;
27925;SDS011;15267;47.838;12.128;2023-04-07T09:31:42;10.35;;;7.75;;
27925;SDS011;15267;47.838;12.128;2023-04-07T09:36:50;8.68;;;7.75;;
27925;SDS011;15267;47.838;12.128;2023-04-07T09:39:16;13.05;;;9.93;;
27925;SDS011;15267;47.838;12.128;2023-04-07T09:41:43;12.43;;;9.05;;
27925;SDS011;15267;47.838;12.128;2023-04-07T09:44:09;11.38;;;8.55;;
27925;SDS011;15267;47.838;12.128;2023-04-07T09:46:35;11.88;;;8.77;;
27925;SDS011;15267;47.838;12.128;2023-04-07T09:49:12;11.85;;;10.10;;
27925;SDS011;15267;47.838;12.128;2023-04-07T09:51:39;13.25;;;9.18;;
27925;SDS011;15267;47.838;12.128;2023-04-07T09:54:20;13.70;;;9.02;;
27925;SDS011;15267;47.838;12.128;2023-04-07T09:56:57;11.30;;;8.10;;
27925;SDS011;15267;47.838;12.128;2023-04-07T09:59:23;8.80;;;7.55;;
27925;SDS011;15267;47.838;12.128;2023-04-07T10:01:50;9.25;;;7.93;;
27925;SDS011;15267;47.838;12.128;2023-04-07T10:04:16;9.70;;;7.90;;
27925;SDS011;15267;47.838;12.128;2023-04-07T10:06:42;8.38;;;6.50;;
27925;SDS011;15267;47.838;12.128;2023-04-07T10:09:08;7.82;;;6.88;;
27925;SDS011;15267;47.838;12.128;2023-04-07T10:11:35;9.65;;;6.40;;
27925;SDS011;15267;47.838;12.128;2023-04-07T10:14:01;8.07;;;6.63;;
27925;SDS011;15267;47.838;12.128;2023-04-07T10:16:27;7.75;;;6.45;;
27925;SDS011;15267;47.838;12.128;2023-04-07T10:18:54;7.18;;;5.97;;
27925;SDS011;15267;47.838;12.128;2023-04-07T10:21:20;7.65;;;6.45;;
27925;SDS011;15267;47.838;12.128;2023-04-07T10:26:32;8.35;;;6.47;;
27925;SDS011;15267;47.838;12.128;2023-04-07T10:29:01;8.48;;;6.40;;
27925;SDS011;15267;47.838;12.128;2023-04-07T10:31:29;6.57;;;5.93;;
27925;SDS011;15267;47.838;12.128;2023-04-07T10:33:55;7.60;;;6.68;;
27925;SDS011;15267;47.838;12.128;2023-04-07T10:36:21;8.90;;;6.47;;
27925;SDS011;15267;47.838;12.128;2023-04-07T10:41:39;9.35;;;6.05;;
27925;SDS011;15267;47.838;12.128;2023-04-07T10:44:06;9.68;;;7.53;;
27925;SDS011;15267;47.838;12.128;2023-04-07T10:49:11;7.15;;;6.05;;
27925;SDS011;15267;47.838;12.128;2023-04-07T10:51:37;9.02;;;6.00;;
27925;SDS011;15267;47.838;12.128;2023-04-07T10:57:03;5.95;;;5.30;;
27925;SDS011;15267;47.838;12.128;2023-04-07T10:59:29;8.50;;;5.45;;
27925;SDS011;15267;47.838;12.128;2023-04-07T11:02:29;6.07;;;4.88;;
27925;SDS011;15267;47.838;12.128;2023-04-07T11:04:48;7.38;;;4.93;;
27925;SDS011;15267;47.838;12.128;2023-04-07T11:07:14;5.82;;;5.20;;
27925;SDS011;15267;47.838;12.128;2023-04-07T11:09:43;5.85;;;5.15;;
27925;SDS011;15267;47.838;12.128;2023-04-07T11:12:22;6.25;;;5.38;;
27925;SDS011;15267;47.838;12.128;2023-04-07T11:14:48;6.47;;;5.38;;
27925;SDS011;15267;47.838;12.128;2023-04-07T11:17:14;6.47;;;5.28;;
27925;SDS011;15267;47.838;12.128;2023-04-07T11:19:49;9.32;;;5.53;;
27925;SDS011;15267;47.838;12.128;2023-04-07T11:22:16;6.88;;;4.90;;
27925;SDS011;15267;47.838;12.128;2023-04-07T11:24:44;6.55;;;5.57;;
27925;SDS011;15267;47.838;12.128;2023-04-07T11:27:13;7.45;;;5.15;;
27925;SDS011;15267;47.838;12.128;2023-04-07T11:29:39;8.10;;;5.40;;
27925;SDS011;15267;47.838;12.128;2023-04-07T11:32:05;7.55;;;4.97;;
27925;SDS011;15267;47.838;12.128;2023-04-07T11:34:37;5.85;;;5.20;;
27925;SDS011;15267;47.838;12.128;2023-04-07T11:37:24;6.68;;;5.30;;
27925;SDS011;15267;47.838;12.128;2023-04-07T11:42:31;6.82;;;5.20;;
27925;SDS011;15267;47.838;12.128;2023-04-07T11:44:57;6.93;;;4.95;;
27925;SDS011;15267;47.838;12.128;2023-04-07T11:47:32;6.85;;;5.90;;
27925;SDS011;15267;47.838;12.128;2023-04-07T11:49:58;6.57;;;5.30;;
27925;SDS011;15267;47.838;12.128;2023-04-07T11:52:25;6.30;;;5.15;;
27925;SDS011;15267;47.838;12.128;2023-04-07T11:54:51;6.38;;;5.68;;
27925;SDS011;15267;47.838;12.128;2023-04-07T11:57:26;5.93;;;5.32;;
27925;SDS011;15267;47.838;12.128;2023-04-07T12:00:05;7.40;;;5.13;;
27925;SDS011;15267;47.838;12.128;2023-04-07T12:02:32;6.43;;;4.97;;
27925;SDS011;15267;47.838;12.128;2023-04-07T12:04:58;8.48;;;5.32;;
27925;SDS011;15267;47.838;12.128;2023-04-07T12:07:24;6.43;;;5.05;;
27925;SDS011;15267;47.838;12.128;2023-04-07T12:09:51;10.13;;;5.70;;
27925;SDS011;15267;47.838;12.128;2023-04-07T12:12:24;8.65;;;4.72;;
27925;SDS011;15267;47.838;12.128;2023-04-07T12:14:51;7.32;;;5.60;;
27925;SDS011;15267;47.838;12.128;2023-04-07T12:17:23;6.15;;;5.05;;
27925;SDS011;15267;47.838;12.128;2023-04-07T12:19:50;7.55;;;5.55;;
27925;SDS011;15267;47.838;12.128;2023-04-07T12:22:16;5.82;;;4.72;;
27925;SDS011;15267;47.838;12.128;2023-04-07T12:24:42;5.88;;;4.70;;
27925;SDS011;15267;47.838;12.128;2023-04-07T12:27:08;5.43;;;4.70;;
27925;SDS011;15267;47.838;12.128;2023-04-07T12:29:34;6.10;;;5.13;;
27925;SDS011;15267;47.838;12.128;2023-04-07T12:32:01;7.38;;;5.10;;
27925;SDS011;15267;47.838;12.128;2023-04-07T12:34:27;6.90;;;5.40;;
27925;SDS011;15267;47.838;12.128;2023-04-07T12:36:53;6.97;;;5.38;;
27925;SDS011;15267;47.838;12.128;2023-04-07T12:39:19;9.65;;;5.35;;
27925;SDS011;15267;47.838;12.128;2023-04-07T12:41:45;6.57;;;5.22;;
27925;SDS011;15267;47.838;12.128;2023-04-07T12:44:12;6.43;;;4.70;;
27925;SDS011;15267;47.838;12.128;2023-04-07T12:46:38;5.70;;;5.10;;
27925;SDS011;15267;47.838;12.128;2023-04-07T12:49:05;5.85;;;5.10;;
27925;SDS011;15267;47.838;12.128;2023-04-07T12:51:31;6.65;;;5.20;;
27925;SDS011;15267;47.838;12.128;2023-04-07T12:54:00;6.32;;;4.60;;
27925;SDS011;15267;47.838;12.128;2023-04-07T12:56:26;4.20;;;3.80;;
27925;SDS011;15267;47.838;12.128;2023-04-07T12:58:52;5.07;;;4.30;;
27925;SDS011;15267;47.838;12.128;2023-04-07T13:01:19;5.45;;;4.40;;
27925;SDS011;15267;47.838;12.128;2023-04-07T13:03:45;6.93;;;4.63;;
27925;SDS011;15267;47.838;12.128;2023-04-07T13:06:11;5.38;;;4.55;;
27925;SDS011;15267;47.838;12.128;2023-04-07T13:08:37;5.32;;;4.57;;
27925;SDS011;15267;47.838;12.128;2023-04-07T13:11:03;6.45;;;4.85;;
27925;SDS011;15267;47.838;12.128;2023-04-07T13:13:30;4.63;;;4.15;;
27925;SDS011;15267;47.838;12.128;2023-04-07T13:15:56;5.72;;;4.35;;
27925;SDS011;15267;47.838;12.128;2023-04-07T13:18:22;5.53;;;4.35;;
27925;SDS011;15267;47.838;12.128;2023-04-07T13:20:48;5.20;;;4.00;;
27925;SDS011;15267;47.838;12.128;2023-04-07T13:23:14;6.30;;;4.50;;
27925;SDS011;15267;47.838;12.128;2023-04-07T13:25:40;5.22;;;4.60;;
27925;SDS011;15267;47.838;12.128;2023-04-07T13:28:06;5.07;;;4.57;;
27925;SDS011;15267;47.838;12.128;2023-04-07T13:30:32;5.43;;;4.55;;
27925;SDS011;15267;47.838;12.128;2023-04-07T13:32:58;6.47;;;4.57;;
27925;SDS011;15267;47.838;12.128;2023-04-07T13:35:24;8.00;;;4.53;;
27925;SDS011;15267;47.838;12.128;2023-04-07T13:37:50;6.05;;;4.50;;
27925;SDS011;15267;47.838;12.128;2023-04-07T13:40:16;5.65;;;4.40;;
27925;SDS011;15267;47.838;12.128;2023-04-07T13:42:42;6.03;;;4.70;;
27925;SDS011;15267;47.838;12.128;2023-04-07T13:45:08;5.97;;;4.68;;
27925;SDS011;15267;47.838;12.128;2023-04-07T13:47:34;5.60;;;4.60;;
27925;SDS011;15267;47.838;12.128;2023-04-07T13:50:01;5.75;;;4.93;;
27925;SDS011;15267;47.838;12.128;2023-04-07T13:52:27;5.00;;;4.25;;
27925;SDS011;15267;47.838;12.128;2023-04-07T13:54:54;7.10;;;4.88;;
27925;SDS011;15267;47.838;12.128;2023-04-07T13:57:21;10.55;;;8.20;;
27925;SDS011;15267;47.838;12.128;2023-04-07T13:59:47;21.88;;;15.13;;
27925;SDS011;15267;47.838;12.128;2023-04-07T14:02:16;6.43;;;5.55;;
27925;SDS011;15267;47.838;12.128;2023-04-07T14:04:42;5.80;;;4.50;;
27925;SDS011;15267;47.838;12.128;2023-04-07T14:07:08;6.07;;;4.88;;
27925;SDS011;15267;47.838;12.128;2023-04-07T14:09:34;6.45;;;4.80;;
27925;SDS011;15267;47.838;12.128;2023-04-07T14:12:00;6.85;;;4.75;;
27925;SDS011;15267;47.838;12.128;2023-04-07T14:14:26;6.78;;;5.15;;
27925;SDS011;15267;47.838;12.128;2023-04-07T14:16:52;5.88;;;5.00;;
27925;SDS011;15267;47.838;12.128;2023-04-07T14:19:22;6.90;;;5.10;;
27925;SDS011;15267;47.838;12.128;2023-04-07T14:21:48;6.55;;;5.10;;
27925;SDS011;15267;47.838;12.128;2023-04-07T14:24:14;6.32;;;4.75;;
27925;SDS011;15267;47.838;12.128;2023-04-07T14:26:41;6.82;;;4.88;;
27925;SDS011;15267;47.838;12.128;2023-04-07T14:29:07;7.25;;;4.90;;
27925;SDS011;15267;47.838;12.128;2023-04-07T14:31:33;5.55;;;4.50;;
27925;SDS011;15267;47.838;12.128;2023-04-07T14:33:59;5.20;;;4.68;;
27925;SDS011;15267;47.838;12.128;2023-04-07T14:36:25;7.07;;;4.68;;
27925;SDS011;15267;47.838;12.128;2023-04-07T14:38:51;5.57;;;4.40;;
27925;SDS011;15267;47.838;12.128;2023-04-07T14:41:18;5.53;;;4.35;;